Time;durP1;ratioP1;P1;durP2;ratioP2;P2;SDS_P1;SDS_P2;PMS_P1;PMS_P2;Temp;Humidity;BMP_temperature;BMP_pressure;BME280_temperature;BME280_humidity;BME280_pressure;Samples;Min_cycle;Max_cycle;Signal;HPM_P1;HPM_P2
2023/06/23 00:02:05;;;;;;;32.72;13.15;;;;;;;21.75;69.99;95569.69;5106660;27;20031;-77
2023/06/23 00:04:31;;;;;;;21.50;13.48;;;;;;;21.79;70.34;95578.72;5123478;27;20027;-77
2023/06/23 00:06:59;;;;;;;25.00;13.82;;;;;;;21.63;70.23;95553.50;5112978;27;20055;-77
2023/06/23 00:09:24;;;;;;;22.45;13.07;;;;;;;21.70;70.39;95571.84;5140749;27;20042;-77
2023/06/23 00:11:50;;;;;;;19.13;12.95;;;;;;;21.68;70.56;95566.75;5124914;27;20031;-77
2023/06/23 00:14:15;;;;;;;17.92;13.27;;;;;;;21.46;70.50;95546.34;5125368;27;20059;-77
2023/06/23 00:16:41;;;;;;;18.27;12.27;;;;;;;21.56;70.46;95554.03;5128672;27;20042;-77
2023/06/23 00:19:06;;;;;;;16.35;12.15;;;;;;;21.34;70.11;95532.06;5115910;27;20446;-77
2023/06/23 00:21:32;;;;;;;18.85;12.95;;;;;;;21.64;70.22;95578.56;5132044;27;20083;-77
2023/06/23 00:23:57;;;;;;;18.70;12.60;;;;;;;21.54;70.08;95567.06;5117477;27;20056;-77
2023/06/23 00:26:26;;;;;;;23.10;12.52;;;;;;;21.62;69.99;95583.50;5115638;27;20065;-77
2023/06/23 00:28:51;;;;;;;18.88;11.93;;;;;;;21.44;70.01;95553.19;5134026;27;20019;-76
2023/06/23 00:31:17;;;;;;;22.02;12.40;;;;;;;21.58;70.05;95574.50;5134347;27;20516;-77
2023/06/23 00:33:43;;;;;;;19.15;12.52;;;;;;;21.48;69.79;95556.81;5131217;27;20035;-76
2023/06/23 00:36:08;;;;;;;20.27;12.77;;;;;;;21.42;69.57;95555.47;5131793;27;20034;-77
2023/06/23 00:38:34;;;;;;;15.80;12.38;;;;;;;21.43;69.41;95554.34;5142405;27;20031;-77
2023/06/23 00:41:01;;;;;;;20.23;12.00;;;;;;;21.35;69.62;95541.72;5130248;27;20162;-77
2023/06/23 00:43:26;;;;;;;20.80;12.18;;;;;;;21.52;69.06;95566.59;5115844;27;20042;-77
2023/06/23 00:45:52;;;;;;;17.08;11.35;;;;;;;21.52;68.56;95563.91;5130675;27;20505;-77
2023/06/23 00:48:17;;;;;;;25.17;11.82;;;;;;;21.43;68.37;95546.25;5115834;27;20031;-77
2023/06/23 00:50:43;;;;;;;15.25;10.43;;;;;;;21.50;68.56;95560.00;5115381;27;20031;-77
2023/06/23 00:53:09;;;;;;;17.58;12.27;;;;;;;21.42;68.48;95550.06;5134318;27;20402;-77
2023/06/23 00:55:37;;;;;;;18.17;11.32;;;;;;;21.52;68.58;95568.53;5115487;27;20019;-77
2023/06/23 00:58:05;;;;;;;13.73;10.15;;;;;;;21.49;68.48;95564.59;5116021;27;20031;-77
2023/06/23 01:00:30;;;;;;;17.38;10.80;;;;;;;21.48;68.42;95567.63;5121312;27;20031;-76
2023/06/23 01:03:02;;;;;;;17.23;10.73;;;;;;;21.48;68.54;95564.91;5131150;27;20477;-76
2023/06/23 01:05:39;;;;;;;19.05;11.23;;;;;;;21.35;68.46;95547.13;5125942;27;20027;-77
2023/06/23 01:08:41;;;;;;;17.08;10.90;;;;;;;21.27;68.64;95539.91;5150358;27;20375;-76
2023/06/23 01:11:23;;;;;;;18.10;10.68;;;;;;;21.34;68.78;95565.22;5122325;27;20043;-77
2023/06/23 01:14:01;;;;;;;22.48;12.30;;;;;;;21.09;69.60;95561.59;5119795;28;20047;-77
2023/06/23 01:16:31;;;;;;;18.58;11.70;;;;;;;21.28;69.13;95566.56;5113238;28;20436;-80
2023/06/23 01:19:22;;;;;;;19.38;11.98;;;;;;;20.99;69.21;95521.56;5109150;28;20509;-79
2023/06/23 01:22:30;;;;;;;16.33;11.48;;;;;;;21.24;68.90;95551.34;5129862;28;20035;-79
2023/06/23 01:25:32;;;;;;;21.60;11.77;;;;;;;21.35;68.59;95557.91;5130179;28;20419;-79
2023/06/23 01:28:37;;;;;;;17.73;10.63;;;;;;;21.32;68.97;95555.88;5123037;28;20432;-79
2023/06/23 01:31:06;;;;;;;19.60;11.38;;;;;;;21.26;69.40;95560.69;5113550;28;20180;-80
2023/06/23 01:33:41;;;;;;;13.82;11.30;;;;;;;20.99;69.21;95524.25;5126943;28;20485;-79
2023/06/23 01:36:11;;;;;;;19.15;11.23;;;;;;;21.03;69.33;95525.19;5114582;27;20192;-79
2023/06/23 01:38:41;;;;;;;18.23;11.80;;;;;;;21.04;69.43;95534.06;5112729;28;20039;-80
2023/06/23 01:41:12;;;;;;;20.45;11.55;;;;;;;21.20;69.50;95548.53;5112421;28;20290;-79
2023/06/23 01:43:41;;;;;;;15.15;9.95;;;;;;;21.13;69.79;95545.56;5133835;28;20034;-77
2023/06/23 01:46:09;;;;;;;16.67;11.38;;;;;;;21.16;69.82;95556.50;5126814;28;20533;-77
2023/06/23 01:48:39;;;;;;;15.30;10.13;;;;;;;21.06;70.02;95547.97;5114447;27;20114;-76
2023/06/23 01:51:07;;;;;;;16.83;11.02;;;;;;;20.90;70.09;95520.88;5116892;27;20035;-77
2023/06/23 01:53:33;;;;;;;28.55;11.48;;;;;;;21.14;69.83;95563.28;5115992;28;20035;-77
2023/06/23 01:56:04;;;;;;;16.63;11.40;;;;;;;20.99;69.76;95542.34;5115333;27;20035;-77
2023/06/23 01:58:33;;;;;;;18.00;10.90;;;;;;;21.02;70.21;95552.47;5120471;27;20122;-77
2023/06/23 02:01:00;;;;;;;15.85;11.10;;;;;;;21.07;70.04;95563.84;5131828;27;20041;-77
2023/06/23 02:03:28;;;;;;;18.25;11.70;;;;;;;20.94;70.25;95559.50;5122130;27;20027;-77
2023/06/23 02:05:55;;;;;;;17.70;11.35;;;;;;;20.89;70.28;95551.63;5118749;27;20026;-77
2023/06/23 02:08:23;;;;;;;19.50;10.77;;;;;;;20.96;70.44;95568.06;5118458;27;20039;-77
2023/06/23 02:10:51;;;;;;;17.02;10.38;;;;;;;20.77;70.82;95549.66;5115730;28;20048;-77
2023/06/23 02:13:18;;;;;;;19.50;12.23;;;;;;;20.88;70.75;95574.31;5137373;27;20035;-77
2023/06/23 02:15:46;;;;;;;20.98;12.23;;;;;;;20.72;70.85;95543.66;5137706;27;20031;-76
2023/06/23 02:18:12;;;;;;;21.40;11.90;;;;;;;20.74;70.88;95542.25;5118058;27;20410;-77
2023/06/23 02:20:40;;;;;;;17.35;11.82;;;;;;;20.48;71.21;95503.91;5099082;28;20046;-77
2023/06/23 02:23:08;;;;;;;16.33;11.77;;;;;;;20.88;70.67;95571.63;5097717;27;20028;-77
2023/06/23 02:25:34;;;;;;;18.10;10.68;;;;;;;20.87;70.50;95564.66;5118412;27;20034;-77
2023/06/23 02:28:01;;;;;;;14.23;10.73;;;;;;;20.67;70.47;95539.25;5118762;27;20031;-77
2023/06/23 02:30:28;;;;;;;19.67;11.88;;;;;;;20.86;70.17;95567.66;5118508;27;20062;-77
2023/06/23 02:32:56;;;;;;;16.42;11.25;;;;;;;20.44;70.41;95510.28;5118460;27;20035;-77
2023/06/23 02:35:22;;;;;;;19.48;11.60;;;;;;;20.85;70.40;95568.78;5137560;27;20035;-77
2023/06/23 02:37:58;;;;;;;22.70;11.95;;;;;;;20.74;70.31;95553.00;5118514;27;20062;-76
2023/06/23 02:40:26;;;;;;;20.92;12.32;;;;;;;20.75;70.19;95546.47;5118153;27;20035;-77
2023/06/23 02:43:23;;;;;;;19.83;11.18;;;;;;;20.86;70.12;95559.56;5118448;27;20086;-77
2023/06/23 02:45:53;;;;;;;19.42;11.77;;;;;;;20.84;70.25;95567.97;5115118;28;20035;-77
2023/06/23 02:48:23;;;;;;;16.60;12.32;;;;;;;20.83;70.24;95552.16;5116442;27;20039;-77
2023/06/23 02:50:50;;;;;;;17.40;11.95;;;;;;;20.76;70.04;95541.88;5135395;27;20031;-77
2023/06/23 02:53:24;;;;;;;20.40;11.63;;;;;;;20.72;70.36;95554.44;5117864;27;20038;-76
2023/06/23 02:56:00;;;;;;;15.15;11.13;;;;;;;20.47;70.02;95526.56;5111875;28;20497;-77
2023/06/23 02:58:28;;;;;;;17.50;11.50;;;;;;;20.49;70.14;95534.31;5101582;28;20107;-77
2023/06/23 03:00:57;;;;;;;25.10;12.57;;;;;;;20.55;70.49;95560.75;5110075;28;20027;-77
2023/06/23 03:03:22;;;;;;;19.15;11.48;;;;;;;20.34;70.19;95512.25;5119950;27;20031;-76
2023/06/23 03:05:49;;;;;;;17.70;12.32;;;;;;;20.58;70.24;95535.84;5125743;27;20039;-77
2023/06/23 03:08:15;;;;;;;20.35;12.18;;;;;;;20.67;69.95;95557.34;5097659;28;20036;-77
2023/06/23 03:10:41;;;;;;;19.67;11.73;;;;;;;20.28;70.87;95513.53;5103247;28;20062;-77
2023/06/23 03:13:07;;;;;;;21.02;12.30;;;;;;;20.16;71.09;95497.25;5141905;27;20034;-76
2023/06/23 03:15:32;;;;;;;19.80;12.27;;;;;;;20.50;70.95;95530.53;5139005;27;20385;-76
2023/06/23 03:18:07;;;;;;;19.90;12.88;;;;;;;20.62;70.91;95552.13;5157182;27;20031;-77
2023/06/23 03:20:35;;;;;;;22.13;12.10;;;;;;;20.66;70.86;95553.06;5157419;27;20034;-77
2023/06/23 03:23:10;;;;;;;20.60;11.82;;;;;;;20.64;70.95;95553.41;5128713;27;20035;-77
2023/06/23 03:25:37;;;;;;;26.13;13.95;;;;;;;20.63;70.51;95549.13;5118015;27;20068;-77
2023/06/23 03:28:06;;;;;;;25.98;13.27;;;;;;;20.38;70.36;95510.44;5135992;27;20062;-77
2023/06/23 03:30:47;;;;;;;27.35;13.18;;;;;;;20.77;70.64;95560.44;5117280;27;20031;-77
2023/06/23 03:33:27;;;;;;;21.48;13.13;;;;;;;20.72;70.32;95543.66;5134441;27;20042;-77
2023/06/23 03:35:58;;;;;;;30.00;15.05;;;;;;;20.69;70.49;95550.50;5136354;27;20067;-77
2023/06/23 03:38:25;;;;;;;21.45;14.95;;;;;;;20.80;70.78;95562.47;5117179;27;20031;-77
2023/06/23 03:41:06;;;;;;;21.17;13.25;;;;;;;20.58;70.37;95533.16;5117172;27;20560;-77
2023/06/23 03:43:41;;;;;;;28.17;14.25;;;;;;;20.73;70.49;95559.53;5132611;27;20536;-77
2023/06/23 03:46:14;;;;;;;26.25;13.65;;;;;;;20.63;70.37;95543.72;5121599;27;20382;-77
2023/06/23 03:48:42;;;;;;;25.77;13.40;;;;;;;20.55;70.91;95530.31;5136143;27;20553;-77
2023/06/23 03:51:12;;;;;;;33.33;15.00;;;;;;;20.72;70.76;95551.75;5152964;27;20054;-77
2023/06/23 03:53:40;;;;;;;28.83;13.02;;;;;;;20.76;70.79;95553.47;5157173;27;20064;-77
2023/06/23 03:56:07;;;;;;;23.42;12.98;;;;;;;20.82;70.69;95553.28;5156258;27;20050;-77
2023/06/23 03:58:35;;;;;;;26.38;13.18;;;;;;;20.89;70.28;95561.63;5120912;27;20035;-77
2023/06/23 04:01:03;;;;;;;25.90;12.85;;;;;;;20.91;69.99;95553.97;5130604;27;20413;-77
2023/06/23 04:03:30;;;;;;;20.13;13.00;;;;;;;20.85;69.71;95536.44;5129539;27;20046;-79
2023/06/23 04:05:57;;;;;;;19.92;12.30;;;;;;;21.10;69.76;95571.28;5126937;27;20489;-79
2023/06/23 04:08:27;;;;;;;31.70;14.43;;;;;;;20.93;69.29;95551.75;5129584;27;20037;-79
2023/06/23 04:10:57;;;;;;;27.13;17.70;;;;;;;20.95;70.70;95573.78;5133307;27;20043;-79
2023/06/23 04:13:25;;;;;;;32.08;17.65;;;;;;;20.99;70.91;95558.50;5123501;27;20031;-79
2023/06/23 04:15:54;;;;;;;28.15;17.38;;;;;;;20.99;70.40;95539.63;5124674;27;20129;-79
2023/06/23 04:18:23;;;;;;;32.33;21.80;;;;;;;20.92;71.54;95548.25;5123797;27;20054;-79
2023/06/23 04:20:50;;;;;;;37.38;20.92;;;;;;;21.10;71.76;95567.78;5119433;27;20038;-79
2023/06/23 04:23:17;;;;;;;37.33;21.70;;;;;;;21.10;72.29;95571.28;5106742;27;20039;-79
2023/06/23 04:25:46;;;;;;;62.38;24.67;;;;;;;21.34;71.69;95588.72;5110915;27;20131;-80
2023/06/23 04:28:15;;;;;;;34.83;21.70;;;;;;;21.09;71.34;95547.31;5108947;27;20030;-80
2023/06/23 04:30:43;;;;;;;51.63;24.55;;;;;;;21.25;71.18;95559.13;5119854;27;20039;-79
2023/06/23 04:33:09;;;;;;;32.33;21.48;;;;;;;21.51;71.15;95583.16;5100624;27;20038;-80
2023/06/23 04:35:35;;;;;;;39.97;23.63;;;;;;;21.22;70.95;95546.28;5118245;27;20031;-79
2023/06/23 04:38:09;;;;;;;36.47;22.08;;;;;;;21.42;70.86;95560.88;5094403;27;20076;-79
2023/06/23 04:40:41;;;;;;;36.00;22.90;;;;;;;21.01;70.72;95515.84;5102654;27;20465;-79
2023/06/23 04:43:13;;;;;;;41.70;23.98;;;;;;;21.45;70.63;95570.97;5108228;27;20041;-80
2023/06/23 04:45:51;;;;;;;32.72;21.48;;;;;;;21.31;70.52;95536.19;5107881;27;20095;-79
2023/06/23 04:48:21;;;;;;;30.35;20.65;;;;;;;21.58;70.28;95580.69;5121926;27;20038;-81
2023/06/23 04:50:48;;;;;;;33.25;21.20;;;;;;;21.56;70.20;95572.16;5108012;27;20532;-80
2023/06/23 04:53:21;;;;;;;47.67;25.52;;;;;;;21.49;70.57;95570.00;5120241;27;20035;-79
2023/06/23 04:55:58;;;;;;;43.47;23.88;;;;;;;21.63;70.74;95585.88;5126765;27;20027;-79
2023/06/23 04:58:28;;;;;;;40.38;23.35;;;;;;;21.60;70.32;95564.94;5104711;27;20061;-80
2023/06/23 05:00:54;;;;;;;41.25;22.42;;;;;;;21.68;70.36;95564.06;5111509;27;20056;-80
2023/06/23 05:03:23;;;;;;;41.90;22.70;;;;;;;21.71;70.14;95584.22;5122476;27;20031;-80
2023/06/23 05:05:53;;;;;;;33.53;23.77;;;;;;;21.81;70.15;95587.28;5124519;27;20035;-79
2023/06/23 05:08:20;;;;;;;45.90;24.75;;;;;;;21.65;70.43;95572.06;5121565;27;20035;-80
2023/06/23 05:10:46;;;;;;;36.63;22.80;;;;;;;21.79;70.45;95586.81;5099855;27;20047;-79
2023/06/23 05:13:17;;;;;;;48.63;24.45;;;;;;;21.85;70.01;95577.38;5098918;27;20045;-80
2023/06/23 05:15:46;;;;;;;35.83;21.63;;;;;;;21.99;69.90;95582.47;5104577;27;20598;-79
2023/06/23 05:18:13;;;;;;;31.15;19.15;;;;;;;21.28;69.50;95474.84;5092588;27;20046;-80
2023/06/23 05:20:40;;;;;;;34.40;19.25;;;;;;;22.00;69.11;95575.16;5102980;28;20277;-80
2023/06/23 05:23:08;;;;;;;42.75;18.83;;;;;;;22.07;69.01;95583.50;5115035;27;20485;-80
2023/06/23 05:25:36;;;;;;;29.42;20.00;;;;;;;22.06;69.14;95587.31;5097714;28;20099;-80
2023/06/23 05:28:03;;;;;;;29.15;20.40;;;;;;;22.06;68.73;95573.81;5104689;28;20092;-80
2023/06/23 05:30:30;;;;;;;35.33;21.08;;;;;;;21.90;68.89;95558.25;5103042;27;20574;-81
2023/06/23 05:32:59;;;;;;;32.70;21.38;;;;;;;22.27;68.84;95606.94;5105182;27;20038;-80
2023/06/23 05:35:26;;;;;;;29.33;20.80;;;;;;;22.12;68.81;95592.19;5109900;27;20308;-81
2023/06/23 05:37:52;;;;;;;32.78;22.83;;;;;;;22.22;68.74;95594.44;5091746;27;20122;-81
2023/06/23 05:40:18;;;;;;;34.88;21.80;;;;;;;22.15;68.43;95578.00;5105932;27;20521;-81
2023/06/23 05:42:44;;;;;;;32.30;21.60;;;;;;;22.38;68.36;95613.47;5103780;27;20132;-81
2023/06/23 05:45:11;;;;;;;34.22;22.63;;;;;;;22.37;68.62;95611.88;5102687;27;20153;-81
2023/06/23 05:48:01;;;;;;;33.22;23.80;;;;;;;22.31;68.71;95607.84;5096814;27;20059;-81
2023/06/23 05:50:32;;;;;;;34.72;21.50;;;;;;;22.21;68.73;95579.34;5092287;27;20482;-80
2023/06/23 05:53:02;;;;;;;37.40;23.52;;;;;;;22.46;68.17;95615.28;5096978;27;20046;-79
2023/06/23 05:55:33;;;;;;;33.65;22.67;;;;;;;22.39;68.61;95614.25;5095473;27;20035;-80
2023/06/23 05:58:04;;;;;;;36.47;22.42;;;;;;;22.38;69.18;95613.47;5109910;27;20484;-80
2023/06/23 06:00:38;;;;;;;33.95;24.08;;;;;;;22.17;69.40;95586.56;5102376;27;20054;-81
2023/06/23 06:03:09;;;;;;;36.55;24.35;;;;;;;22.25;69.38;95596.47;5097015;27;20036;-81
2023/06/23 06:05:38;;;;;;;47.78;24.30;;;;;;;22.40;69.64;95623.94;5119185;27;20042;-81
2023/06/23 06:08:05;;;;;;;41.30;22.42;;;;;;;22.46;69.30;95617.19;5117351;27;20062;-81
2023/06/23 06:10:31;;;;;;;43.53;25.00;;;;;;;22.18;69.63;95580.03;5099299;27;20059;-81
2023/06/23 06:13:00;;;;;;;37.10;23.23;;;;;;;22.34;68.94;95588.25;5113815;27;20399;-80
2023/06/23 06:15:26;;;;;;;38.50;24.48;;;;;;;22.08;69.39;95571.56;5112338;27;20038;-80
2023/06/23 06:17:53;;;;;;;41.40;23.83;;;;;;;22.44;69.35;95611.31;5100427;27;20019;-81
2023/06/23 06:20:20;;;;;;;50.33;25.38;;;;;;;22.51;68.98;95598.81;5115834;27;20107;-81
2023/06/23 06:22:47;;;;;;;39.03;25.13;;;;;;;22.62;68.83;95613.47;5095437;27;20087;-81
2023/06/23 06:25:13;;;;;;;37.65;22.92;;;;;;;22.71;68.36;95608.72;5120119;27;20034;-81
2023/06/23 06:27:41;;;;;;;33.35;25.30;;;;;;;22.58;68.13;95571.25;5120214;27;20074;-80
2023/06/23 06:30:07;;;;;;;43.17;25.13;;;;;;;22.65;68.34;95582.28;5106115;27;20259;-81
2023/06/23 06:32:37;;;;;;;37.35;23.63;;;;;;;22.61;68.45;95592.16;5099941;27;20111;-80
2023/06/23 06:35:05;;;;;;;33.75;24.50;;;;;;;22.47;68.22;95559.31;5094305;27;20035;-81
2023/06/23 06:37:37;;;;;;;34.55;22.58;;;;;;;22.60;67.88;95558.94;5117697;27;20031;-80
2023/06/23 06:40:05;;;;;;;32.03;23.23;;;;;;;22.55;67.45;95528.66;5114973;27;20027;-81
2023/06/23 06:42:31;;;;;;;34.72;22.15;;;;;;;22.80;66.93;95573.50;5100553;27;20357;-80
2023/06/23 06:44:57;;;;;;;36.85;21.95;;;;;;;22.95;67.41;95585.50;5101540;27;20019;-81
2023/06/23 06:47:24;;;;;;;37.28;22.20;;;;;;;22.81;68.19;95588.56;5095259;27;20037;-81
2023/06/23 06:49:51;;;;;;;29.50;21.08;;;;;;;22.85;68.04;95577.84;5102969;27;20027;-81
2023/06/23 06:52:18;;;;;;;30.45;22.50;;;;;;;22.98;67.59;95566.66;5099215;27;20356;-80
2023/06/23 06:54:45;;;;;;;35.10;20.02;;;;;;;23.05;67.31;95566.88;5089449;27;20191;-80
2023/06/23 06:57:11;;;;;;;27.52;20.70;;;;;;;22.99;66.91;95535.00;5113811;27;20168;-80
2023/06/23 06:59:37;;;;;;;34.83;21.75;;;;;;;23.17;66.57;95549.81;5095198;27;20447;-81
2023/06/23 07:02:05;;;;;;;35.33;21.90;;;;;;;23.33;66.22;95564.19;5095186;27;20031;-81
2023/06/23 07:04:31;;;;;;;36.83;20.63;;;;;;;23.14;66.86;95530.75;5094532;27;20038;-80
2023/06/23 07:06:56;;;;;;;33.42;21.55;;;;;;;23.41;66.63;95544.31;5102117;27;20501;-80
2023/06/23 07:09:22;;;;;;;35.95;21.45;;;;;;;23.12;66.76;95490.53;5099591;27;20034;-80
2023/06/23 07:11:48;;;;;;;30.77;18.48;;;;;;;23.15;66.45;95478.25;5085704;27;20047;-80
2023/06/23 07:14:14;;;;;;;27.27;20.17;;;;;;;23.56;66.52;95544.69;5112374;27;20111;-80
2023/06/23 07:16:40;;;;;;;33.22;20.88;;;;;;;23.30;66.24;95508.03;5115996;27;20030;-80
2023/06/23 07:19:05;;;;;;;36.65;20.52;;;;;;;23.44;66.21;95511.13;5100060;27;20027;-82
2023/06/23 07:21:32;;;;;;;32.60;21.88;;;;;;;23.58;66.37;95540.50;5103246;27;20042;-81
2023/06/23 07:23:57;;;;;;;25.77;17.85;;;;;;;23.37;64.53;95529.88;5113406;27;20077;-80
2023/06/23 07:26:23;;;;;;;28.60;17.67;;;;;;;23.47;64.69;95528.59;5119708;27;20164;-81
2023/06/23 07:28:48;;;;;;;29.13;20.77;;;;;;;23.41;65.26;95505.63;5107051;27;20531;-80
2023/06/23 07:31:14;;;;;;;24.65;17.27;;;;;;;23.55;65.12;95514.13;5116516;27;20034;-80
2023/06/23 07:33:41;;;;;;;27.55;19.17;;;;;;;23.71;64.91;95523.06;5099437;27;20091;-80
2023/06/23 07:36:07;;;;;;;24.33;17.92;;;;;;;23.70;64.68;95513.38;5097341;27;20027;-80
2023/06/23 07:38:32;;;;;;;28.92;18.10;;;;;;;23.72;64.53;95519.22;5107912;27;20034;-81
2023/06/23 07:40:58;;;;;;;26.23;17.40;;;;;;;23.44;65.08;95504.91;5100355;27;20134;-80
2023/06/23 07:43:23;;;;;;;26.95;17.33;;;;;;;23.62;64.68;95506.19;5107074;27;20054;-80
2023/06/23 07:45:49;;;;;;;23.23;16.92;;;;;;;23.73;64.67;95509.94;5101490;27;20587;-80
2023/06/23 07:48:14;;;;;;;24.77;15.95;;;;;;;23.74;64.21;95480.94;5105776;27;20429;-80
2023/06/23 07:50:39;;;;;;;31.52;17.35;;;;;;;23.84;64.47;95513.72;5097059;27;20023;-81
2023/06/23 07:53:05;;;;;;;24.45;16.48;;;;;;;23.84;64.12;95499.38;5092019;27;20472;-80
2023/06/23 07:55:31;;;;;;;28.63;15.20;;;;;;;23.94;63.45;95522.47;5086530;27;20035;-80
2023/06/23 07:57:56;;;;;;;24.08;16.27;;;;;;;23.67;63.54;95492.38;5091783;27;20031;-80
2023/06/23 08:00:23;;;;;;;22.48;15.90;;;;;;;23.28;63.09;95417.50;5078007;27;20031;-80
2023/06/23 08:02:49;;;;;;;26.48;16.73;;;;;;;23.72;62.99;95470.47;5096904;27;20062;-80
2023/06/23 08:05:15;;;;;;;21.08;14.70;;;;;;;24.13;62.55;95520.59;5090270;27;20043;-79
2023/06/23 08:07:41;;;;;;;26.23;14.88;;;;;;;23.90;62.90;95468.19;5116070;27;20035;-80
2023/06/23 08:10:08;;;;;;;22.45;15.70;;;;;;;24.21;62.37;95510.75;5086485;27;20054;-81
2023/06/23 08:12:35;;;;;;;21.85;15.13;;;;;;;24.22;61.94;95510.41;5103977;27;20122;-80
2023/06/23 08:15:01;;;;;;;25.23;14.95;;;;;;;24.28;61.51;95497.34;5081690;28;20170;-80
2023/06/23 08:17:26;;;;;;;21.70;15.32;;;;;;;24.54;61.63;95519.25;5075071;28;20455;-81
2023/06/23 08:19:51;;;;;;;22.17;15.38;;;;;;;24.36;60.97;95501.78;5071931;28;20038;-81
2023/06/23 08:22:17;;;;;;;21.73;14.70;;;;;;;24.42;60.69;95496.88;5078242;28;20031;-80
2023/06/23 08:24:42;;;;;;;20.30;14.50;;;;;;;24.42;60.17;95511.22;5071582;28;20108;-80
2023/06/23 08:27:08;;;;;;;21.83;13.73;;;;;;;24.38;60.11;95485.97;5087384;27;20514;-81
2023/06/23 08:29:36;;;;;;;22.15;14.25;;;;;;;24.43;60.63;95503.88;5064428;28;20035;-80
2023/06/23 08:32:01;;;;;;;25.05;14.13;;;;;;;23.93;59.73;95424.16;5068878;28;20614;-79
2023/06/23 08:34:27;;;;;;;17.00;13.70;;;;;;;24.52;59.59;95491.69;5070905;28;20055;-79
2023/06/23 08:36:52;;;;;;;22.90;13.77;;;;;;;24.74;59.60;95505.72;5068029;28;20031;-80
2023/06/23 08:39:17;;;;;;;27.20;15.00;;;;;;;24.56;60.30;95459.25;5076744;28;20457;-79
2023/06/23 08:41:48;;;;;;;21.52;13.50;;;;;;;24.92;59.18;95510.41;5084565;27;21276;-79
2023/06/23 08:44:14;;;;;;;;;;;;;;;25.09;59.29;95514.63;5041126;28;20062;-79
2023/06/23 08:46:41;;;;;;;21.98;13.38;;;;;;;24.85;57.88;95477.69;5074213;27;20002;-79
2023/06/23 08:49:15;;;;;;;18.55;12.98;;;;;;;25.06;56.96;95490.09;5060118;28;20028;-79
2023/06/23 08:51:41;;;;;;;23.45;14.02;;;;;;;24.98;56.67;95478.34;5072754;28;20094;-79
2023/06/23 08:54:08;;;;;;;18.63;13.90;;;;;;;25.29;56.32;95505.31;5069411;27;20936;-79
2023/06/23 08:56:33;;;;;;;21.70;12.93;;;;;;;25.17;57.05;95486.47;5088624;27;20425;-80
2023/06/23 08:59:00;;;;;;;28.55;13.68;;;;;;;25.18;57.14;95458.16;5070959;28;20058;-79
2023/06/23 09:01:26;;;;;;;17.48;12.40;;;;;;;25.26;55.94;95459.09;5092468;27;20036;-79
2023/06/23 09:03:51;;;;;;;23.15;12.27;;;;;;;25.24;55.71;95462.19;5052628;28;20059;-79
2023/06/23 09:06:16;;;;;;;18.52;12.70;;;;;;;25.47;56.08;95472.28;5072016;28;20521;-79
2023/06/23 09:08:42;;;;;;;16.35;11.65;;;;;;;25.26;58.78;95453.66;5085826;27;20314;-79
2023/06/23 09:11:07;;;;;;;26.75;13.95;;;;;;;25.51;56.58;95467.69;5080500;28;20061;-80
2023/06/23 09:13:38;;;;;;;19.05;12.90;;;;;;;25.62;55.96;95479.56;5074930;28;20046;-80
2023/06/23 09:16:04;;;;;;;;;;;;;;;25.81;54.35;95493.06;5081012;27;20139;-79
2023/06/23 09:18:35;;;;;;;19.83;12.20;;;;;;;25.59;55.54;95461.25;5109970;27;19934;-79
2023/06/23 09:21:04;;;;;;;18.83;12.18;;;;;;;25.71;57.55;95470.00;5100302;28;20035;-80
2023/06/23 09:23:33;;;;;;;19.83;13.15;;;;;;;25.64;55.21;95439.22;5082833;28;20425;-79
2023/06/23 09:25:59;;;;;;;20.50;12.38;;;;;;;25.73;54.66;95442.47;5074356;27;20023;-81
2023/06/23 09:28:25;;;;;;;19.30;10.95;;;;;;;25.97;52.02;95488.28;5098415;28;20132;-79
2023/06/23 09:30:52;;;;;;;19.55;11.50;;;;;;;25.68;51.75;95445.50;5097875;28;20450;-81
2023/06/23 09:33:19;;;;;;;16.17;10.90;;;;;;;25.97;52.33;95482.06;5097488;27;20054;-80
2023/06/23 09:35:52;;;;;;;21.70;12.38;;;;;;;26.04;55.27;95480.25;5096464;28;20706;-80
2023/06/23 09:38:22;;;;;;;17.17;12.35;;;;;;;26.00;53.75;95449.53;5080302;28;20036;-80
2023/06/23 09:41:00;;;;;;;20.90;12.88;;;;;;;26.08;54.18;95455.84;5067530;28;20399;-80
2023/06/23 09:43:26;;;;;;;16.90;10.98;;;;;;;26.31;52.56;95472.91;5051834;28;20097;-79
2023/06/23 09:45:52;;;;;;;16.38;10.82;;;;;;;26.73;51.00;95458.31;5061174;28;20036;-81
2023/06/23 09:48:18;;;;;;;14.88;9.65;;;;;;;27.78;48.04;95462.56;5054388;28;20437;-79
2023/06/23 09:50:44;;;;;;;15.95;9.80;;;;;;;28.74;47.46;95472.22;5067624;28;20086;-80
2023/06/23 09:53:10;;;;;;;14.18;10.02;;;;;;;29.75;45.98;95463.97;5066712;28;20126;-79
2023/06/23 09:55:36;;;;;;;16.10;9.70;;;;;;;30.34;41.08;95456.94;5072043;28;20040;-79
2023/06/23 09:58:08;;;;;;;13.70;9.45;;;;;;;31.35;40.60;95462.50;5095565;28;20051;-80
2023/06/23 10:00:34;;;;;;;14.80;9.18;;;;;;;32.19;39.44;95452.09;5079231;28;20035;-80
2023/06/23 10:03:00;;;;;;;10.75;7.95;;;;;;;32.86;37.51;95445.19;5072339;28;20565;-80
2023/06/23 10:05:33;;;;;;;15.13;9.07;;;;;;;33.66;36.49;95469.25;5077617;28;20031;-80
2023/06/23 10:08:10;;;;;;;20.73;9.40;;;;;;;34.12;35.00;95436.72;5098413;28;20153;-80
2023/06/23 10:10:43;;;;;;;11.13;8.45;;;;;;;34.72;36.28;95449.41;5124038;27;20058;-80
2023/06/23 10:13:09;;;;;;;12.32;7.28;;;;;;;34.74;35.89;95430.53;5101525;27;20027;-80
2023/06/23 10:15:36;;;;;;;13.38;6.43;;;;;;;35.31;31.51;95448.69;5106342;28;20030;-79
2023/06/23 10:18:02;;;;;;;10.65;5.93;;;;;;;35.45;31.30;95431.81;5101276;27;20038;-81
2023/06/23 10:20:27;;;;;;;9.63;7.63;;;;;;;35.93;30.23;95453.94;5097202;27;20107;-81
2023/06/23 10:22:55;;;;;;;10.75;6.80;;;;;;;35.89;30.28;95400.06;5093430;27;20794;-80
2023/06/23 10:25:22;;;;;;;13.95;7.45;;;;;;;36.53;31.28;95445.38;5104345;27;20472;-81
2023/06/23 10:27:50;;;;;;;13.75;6.88;;;;;;;36.57;31.34;95427.50;5111049;27;20617;-80
2023/06/23 10:30:17;;;;;;;9.68;6.63;;;;;;;36.62;29.18;95410.38;5122035;27;20039;-85
2023/06/23 10:32:54;;;;;;;12.95;7.65;;;;;;;36.79;29.92;95440.75;5123643;27;20031;-82
2023/06/23 10:35:23;;;;;;;12.10;7.45;;;;;;;36.80;31.75;95423.75;5122024;27;20039;-80
2023/06/23 10:37:55;;;;;;;13.13;7.00;;;;;;;36.76;29.68;95416.78;5106096;27;20037;-81
2023/06/23 10:40:24;;;;;;;13.00;7.78;;;;;;;36.89;28.46;95418.34;5121914;27;20345;-81
2023/06/23 10:42:51;;;;;;;15.07;6.82;;;;;;;36.78;29.63;95417.09;5101719;27;20046;-81
2023/06/23 10:45:17;;;;;;;13.23;7.20;;;;;;;36.81;28.44;95394.13;5097518;27;20023;-80
2023/06/23 10:47:43;;;;;;;14.75;6.72;;;;;;;36.90;28.43;95383.19;5097670;27;20039;-81
2023/06/23 10:50:11;;;;;;;12.10;7.50;;;;;;;36.80;28.88;95360.19;5115088;27;20031;-80
2023/06/23 10:52:37;;;;;;;11.30;7.10;;;;;;;37.13;27.74;95407.03;5103058;27;20501;-80
2023/06/23 10:55:36;;;;;;;11.20;7.63;;;;;;;37.14;29.37;95395.53;5101016;27;20675;-80
2023/06/23 10:58:46;;;;;;;10.15;6.97;;;;;;;37.16;28.90;95376.50;5101260;27;20035;-79
2023/06/23 11:01:11;;;;;;;13.55;7.25;;;;;;;37.32;28.90;95397.75;5096395;27;20129;-79
2023/06/23 11:03:38;;;;;;;11.30;6.43;;;;;;;37.40;26.83;95401.84;5126361;27;20134;-78
2023/06/23 11:06:08;;;;;;;13.30;7.28;;;;;;;37.14;26.29;95403.84;5100429;27;20026;-84
2023/06/23 11:08:37;;;;;;;11.88;6.97;;;;;;;37.08;26.57;95384.22;5109477;27;20067;-83
2023/06/23 11:11:13;;;;;;;14.60;6.80;;;;;;;36.92;26.19;95386.31;5109951;27;20050;-86
2023/06/23 11:13:41;;;;;;;14.65;6.88;;;;;;;37.17;26.11;95391.88;5106563;27;20467;-86
2023/06/23 11:16:13;;;;;;;9.98;5.95;;;;;;;36.38;26.57;95387.00;5122468;27;20035;-83
2023/06/23 11:18:53;;;;;;;12.40;6.63;;;;;;;36.45;27.65;95374.97;5131432;27;20604;-85
2023/06/23 11:21:28;;;;;;;12.35;6.65;;;;;;;36.79;28.04;95380.72;5128341;27;20035;-84
2023/06/23 11:24:13;;;;;;;14.88;7.72;;;;;;;36.98;29.46;95359.66;5115838;27;20046;-83
2023/06/23 11:27:02;;;;;;;9.95;6.57;;;;;;;37.06;28.72;95377.59;5126585;27;20032;-81
2023/06/23 11:29:27;;;;;;;11.90;6.05;;;;;;;37.13;27.83;95333.16;5110467;27;20077;-83